KPTN/PTN METAR and TAF weather

Enter ICAO airport designator
Station Type Date Time Source
KPTN METAR 2018/12/19 09:56 UTC NOAA

KPTN 190956Z AUTO 08007KT 10SM FEW080 SCT100 11/11 A2996 RMK AO2 SLP147 T01110106


Station Type Date Time Source
KPTN Decoded METAR 2018/12/19 09:56 UTC NOAA

Patterson Memorial, LA, United States (KPTN) 29-43N 091-20W
Dec 19, 2018 - 04:56 AM EST / 2018.12.19 0956 UTC
Wind: from the E (080 degrees) at 8 MPH (7 KT):0
Visibility: 10 mile(s):0
Sky conditions: partly cloudy
Temperature: 52.0 F (11.1 C)
Dew Point: 51.1 F (10.6 C)
Relative Humidity: 96%
Pressure (altimeter): 29.96 in. Hg (1014 hPa)
ob: KPTN 190956Z AUTO 08007KT 10SM FEW080 SCT100 11/11 A2996 RMK AO2 SLP147 T01110106
cycle: 10

Station Type Date Time Source
KPTN TAF UTC NOAA

Error!


Example: see airport list